Time;durP1;ratioP1;P1;durP2;ratioP2;P2;SDS_P1;SDS_P2;PMS_P1;PMS_P2;Temp;Humidity;BMP_temperature;BMP_pressure;BME280_temperature;BME280_humidity;BME280_pressure;Samples;Min_cycle;Max_cycle;Signal;HPM_P1;HPM_P2
2021/06/23 00:02:18;;;;;;;;;39.75;32.75;;;;;19.35;57.00;100712.84;5076622;27;45485;-74
2021/06/23 00:04:44;;;;;;;;;38.50;33.00;;;;;19.36;56.39;100703.09;5077344;27;45470;-74
2021/06/23 00:07:10;;;;;;;;;37.25;31.75;;;;;19.37;56.86;100710.09;5077063;28;45609;-75
2021/06/23 00:09:35;;;;;;;;;39.25;35.00;;;;;19.38;56.57;100714.44;5075376;28;46195;-76
2021/06/23 00:12:00;;;;;;;;;35.25;32.50;;;;;19.36;56.81;100714.53;5075160;27;45463;-76
2021/06/23 00:14:26;;;;;;;;;28.50;26.75;;;;;19.37;56.32;100710.94;5072985;28;57873;-78
2021/06/23 00:16:51;;;;;;;;;31.50;29.75;;;;;19.37;56.79;100715.38;5075075;28;45427;-76
2021/06/23 00:19:17;;;;;;;;;37.75;33.50;;;;;19.38;56.75;100710.00;5061738;28;47805;-76
2021/06/23 00:21:43;;;;;;;;;33.50;30.25;;;;;19.37;56.43;100704.78;5054529;27;45370;-77
2021/06/23 00:24:08;;;;;;;;;43.75;34.00;;;;;19.37;56.89;100718.88;5058096;28;45529;-76
2021/06/23 00:26:34;;;;;;;;;36.75;33.75;;;;;19.38;56.82;100709.16;5038907;28;45726;-74
2021/06/23 00:29:00;;;;;;;;;36.75;30.25;;;;;19.37;56.86;100710.09;5071294;28;45675;-74
2021/06/23 00:31:27;;;;;;;;;36.25;32.25;;;;;19.36;56.73;100716.34;5090689;27;45664;-76
2021/06/23 00:33:52;;;;;;;;;29.25;26.50;;;;;19.35;56.44;100710.19;5055746;28;45590;-76
2021/06/23 00:36:17;;;;;;;;;29.50;28.25;;;;;19.36;56.83;100713.69;5072747;28;51572;-76
2021/06/23 00:38:43;;;;;;;;;28.50;27.50;;;;;19.35;56.96;100718.13;5071618;28;46243;-75
2021/06/23 00:41:08;;;;;;;;;28.50;26.75;;;;;19.35;57.00;100714.63;5090418;27;45508;-75
2021/06/23 00:43:34;;;;;;;;;33.25;29.75;;;;;19.33;56.45;100708.56;5073290;28;45484;-76
2021/06/23 00:45:59;;;;;;;;;31.50;27.25;;;;;19.33;56.49;100713.88;5056903;28;45424;-75
2021/06/23 00:48:28;;;;;;;;;26.25;26.25;;;;;19.33;56.24;100719.16;5072109;27;54284;-75
2021/06/23 00:50:55;;;;;;;;;35.00;31.50;;;;;19.31;56.66;100718.41;5073247;28;45535;-75
2021/06/23 00:53:21;;;;;;;;;32.75;32.25;;;;;19.33;56.80;100719.16;5074024;27;45493;-74
2021/06/23 00:55:46;;;;;;;;;26.50;24.25;;;;;19.31;56.32;100723.72;5073013;27;45494;-75
2021/06/23 00:58:12;;;;;;;;;31.50;29.00;;;;;19.32;56.53;100717.47;5072093;28;64179;-74
2021/06/23 01:00:37;;;;;;;;;30.25;28.50;;;;;19.31;56.58;100713.13;5056384;28;45733;-77
2021/06/23 01:03:04;;;;;;;;;31.75;27.75;;;;;19.31;56.43;100723.72;5072720;28;45598;-74
2021/06/23 01:05:29;;;;;;;;;27.50;26.00;;;;;19.29;56.19;100713.19;5055162;28;45645;-74
2021/06/23 01:07:55;;;;;;;;;28.50;25.75;;;;;19.29;56.39;100713.19;5073563;27;46829;-76
2021/06/23 01:10:20;;;;;;;;;29.75;26.25;;;;;19.29;56.61;100723.75;5072419;27;45449;-74
2021/06/23 01:12:54;;;;;;;;;34.75;33.00;;;;;19.29;56.34;100721.13;5068430;27;45448;-78
2021/06/23 01:15:19;;;;;;;;;31.50;30.00;;;;;19.28;56.34;100721.22;5067152;27;45462;-78
2021/06/23 01:17:44;;;;;;;;;37.25;29.50;;;;;19.28;56.14;100723.84;5072510;28;48513;-75
2021/06/23 01:20:11;;;;;;;;;31.75;31.00;;;;;19.27;56.55;100722.16;5057070;28;50340;-77
2021/06/23 01:22:38;;;;;;;;;29.00;28.00;;;;;19.25;56.47;100714.31;5056567;28;45415;-76
2021/06/23 01:25:05;;;;;;;;;30.50;30.50;;;;;19.24;56.39;100718.75;5056335;28;45429;-74
2021/06/23 01:27:31;;;;;;;;;32.50;26.50;;;;;19.25;56.60;100716.94;5072101;27;46120;-77
2021/06/23 01:29:56;;;;;;;;;29.00;24.75;;;;;19.24;56.62;100724.03;5056912;28;45418;-74
2021/06/23 01:32:22;;;;;;;;;31.50;28.75;;;;;19.24;56.52;100718.75;5071703;27;45445;-75
2021/06/23 01:34:47;;;;;;;;;33.25;29.50;;;;;19.24;56.61;100717.91;5053620;28;45688;-79
2021/06/23 01:37:13;;;;;;;;;36.50;33.25;;;;;19.23;56.48;100718.84;5068125;28;45457;-74
2021/06/23 01:39:38;;;;;;;;;32.75;28.00;;;;;19.22;56.29;100720.63;5080665;28;45516;-76
2021/06/23 01:42:04;;;;;;;;;31.75;27.00;;;;;19.23;56.19;100717.03;5101312;27;55056;-77
2021/06/23 01:44:29;;;;;;;;;39.50;33.00;;;;;19.21;56.15;100716.28;5085234;27;45484;-77
2021/06/23 01:46:59;;;;;;;;;31.00;27.00;;;;;19.21;56.21;100721.56;5079474;27;45651;-78
2021/06/23 01:49:26;;;;;;;;;31.50;29.25;;;;;19.20;56.39;100725.16;5077693;27;45355;-75
2021/06/23 01:51:52;;;;;;;;;45.50;34.00;;;;;19.19;56.16;100715.53;5094818;27;45543;-79
2021/06/23 01:54:17;;;;;;;;;38.00;33.00;;;;;19.20;56.30;100719.88;5078012;27;45675;-76
2021/06/23 01:56:42;;;;;;;;;36.75;34.00;;;;;19.20;56.12;100729.63;5077388;27;62494;-77
2021/06/23 01:59:08;;;;;;;;;37.00;32.00;;;;;19.19;56.26;100717.31;5078175;27;45599;-76
2021/06/23 02:01:59;;;;;;;;;34.75;32.00;;;;;19.19;56.39;100720.81;5059822;28;45593;-75
2021/06/23 02:04:34;;;;;;;;;33.50;30.00;;;;;19.18;56.30;100715.63;5076655;27;45619;-74
2021/06/23 02:07:18;;;;;;;;;31.00;29.00;;;;;19.18;56.33;100715.63;5058426;28;47481;-75
2021/06/23 02:09:52;;;;;;;;;29.50;25.25;;;;;19.17;56.36;100713.91;5076956;27;45246;-75
2021/06/23 02:12:23;;;;;;;;;35.25;30.75;;;;;19.16;56.63;100715.72;5075847;27;45414;-75
2021/06/23 02:14:50;;;;;;;;;30.25;26.50;;;;;19.15;56.21;100713.16;5075077;28;45472;-77
2021/06/23 02:17:16;;;;;;;;;33.25;31.00;;;;;19.15;56.38;100705.22;5058931;28;47242;-75
2021/06/23 02:19:43;;;;;;;;;38.00;33.75;;;;;19.14;56.22;100704.34;5063560;28;45944;-76
2021/06/23 02:22:13;;;;;;;;;35.00;31.00;;;;;19.13;56.39;100707.09;5055782;28;45581;-76
2021/06/23 02:24:40;;;;;;;;;38.25;30.00;;;;;19.13;56.45;100710.59;5055011;28;45497;-75
2021/06/23 02:27:06;;;;;;;;;29.75;27.00;;;;;19.13;56.22;100707.09;5055286;28;47954;-77
2021/06/23 02:29:32;;;;;;;;;25.50;24.25;;;;;19.11;56.58;100698.38;5072138;28;45403;-74
2021/06/23 02:31:57;;;;;;;;;36.75;30.75;;;;;19.12;56.31;100706.25;5058034;28;45481;-74
2021/06/23 02:34:22;;;;;;;;;36.75;31.50;;;;;19.13;56.55;100707.09;5059539;28;45640;-75
2021/06/23 02:36:48;;;;;;;;;32.00;29.75;;;;;19.12;56.36;100705.38;5075074;27;47731;-75
2021/06/23 02:39:13;;;;;;;;;34.75;30.50;;;;;19.14;56.08;100719.38;5062128;27;45405;-75
2021/06/23 02:41:39;;;;;;;;;31.75;28.25;;;;;19.13;56.24;100721.19;5076953;27;45578;-75
2021/06/23 02:44:04;;;;;;;;;30.25;30.00;;;;;19.13;56.72;100715.03;5074157;28;45671;-74
2021/06/23 02:46:30;;;;;;;;;29.00;27.25;;;;;19.13;56.58;100722.97;5058206;28;45499;-74
2021/06/23 02:48:56;;;;;;;;;37.00;29.25;;;;;19.13;56.25;100722.97;5074879;27;45631;-77
2021/06/23 02:51:23;;;;;;;;;28.25;27.50;;;;;19.13;56.57;100728.28;5058046;28;45579;-74
2021/06/23 02:53:49;;;;;;;;;32.25;29.50;;;;;19.14;56.28;100728.19;5076617;27;45379;-74
2021/06/23 02:56:16;;;;;;;;;28.75;25.75;;;;;19.14;56.23;100737.91;5074197;28;46394;-74
2021/06/23 02:58:42;;;;;;;;;34.00;28.75;;;;;19.14;56.26;100729.97;5074841;27;45512;-73
2021/06/23 03:01:07;;;;;;;;;28.75;28.75;;;;;19.13;56.50;100726.47;5075476;27;45326;-75
2021/06/23 03:03:33;;;;;;;;;26.00;21.25;;;;;19.15;56.40;100727.25;5058876;28;45572;-74
2021/06/23 03:06:02;;;;;;;;;23.50;23.00;;;;;19.14;56.21;100733.47;5073327;27;62178;-74
2021/06/23 03:08:28;;;;;;;;;29.75;25.75;;;;;19.15;56.45;100726.38;5076514;27;45723;-75
2021/06/23 03:10:54;;;;;;;;;23.75;21.75;;;;;19.14;56.43;100725.53;5077657;27;45471;-76
2021/06/23 03:13:20;;;;;;;;;25.00;23.00;;;;;19.14;56.24;100714.09;5062003;28;45606;-74
2021/06/23 03:15:45;;;;;;;;;26.25;22.00;;;;;19.14;56.53;100725.53;5077121;28;46458;-78
2021/06/23 03:18:11;;;;;;;;;28.25;26.25;;;;;19.15;56.24;100729.88;5078398;27;46557;-76
2021/06/23 03:20:36;;;;;;;;;22.50;20.50;;;;;19.15;56.55;100719.28;5058906;28;45758;-76
2021/06/23 03:23:01;;;;;;;;;24.25;21.25;;;;;19.13;56.22;100721.19;5058328;28;45600;-76
2021/06/23 03:25:27;;;;;;;;;19.25;18.50;;;;;19.14;56.52;100717.59;5056725;28;48416;-76
2021/06/23 03:27:53;;;;;;;;;26.25;21.25;;;;;19.14;56.23;100725.53;5081162;27;45704;-76
2021/06/23 03:30:20;;;;;;;;;18.25;16.25;;;;;19.13;56.26;100715.03;5075780;28;45354;-75
2021/06/23 03:32:48;;;;;;;;;22.50;19.00;;;;;19.13;56.58;100717.69;5074182;27;45678;-75
2021/06/23 03:35:13;;;;;;;;;20.75;17.50;;;;;19.13;56.46;100723.84;5060483;28;48422;-76
2021/06/23 03:37:39;;;;;;;;;16.50;16.25;;;;;19.13;56.25;100715.03;5075153;27;45442;-76
2021/06/23 03:40:04;;;;;;;;;22.00;18.75;;;;;19.12;56.43;100722.13;5075408;27;49709;-77
2021/06/23 03:42:30;;;;;;;;;24.50;24.50;;;;;19.12;56.64;100716.84;5040270;28;45509;-77
2021/06/23 03:44:55;;;;;;;;;25.00;23.75;;;;;19.12;56.30;100722.13;5075314;27;47120;-75
2021/06/23 03:47:21;;;;;;;;;22.25;18.50;;;;;19.11;56.38;100725.72;5072953;27;55700;-74
2021/06/23 03:49:47;;;;;;;;;23.25;21.50;;;;;19.12;56.55;100722.13;5075207;27;51002;-75
2021/06/23 03:52:12;;;;;;;;;17.75;16.75;;;;;19.11;56.26;100727.50;5074347;28;45886;-75
2021/06/23 03:54:38;;;;;;;;;23.75;22.00;;;;;19.10;56.68;100725.81;5057035;28;46184;-74
2021/06/23 03:57:03;;;;;;;;;19.50;16.50;;;;;19.09;56.24;100722.31;5075254;28;45539;-74
2021/06/23 03:59:29;;;;;;;;;21.75;18.50;;;;;19.09;56.34;100732.91;5061788;27;45368;-75
2021/06/23 04:01:54;;;;;;;;;24.50;21.75;;;;;19.09;56.55;100734.69;5051187;28;46077;-77
2021/06/23 04:04:20;;;;;;;;;29.00;23.25;;;;;19.08;56.43;100735.59;5080258;27;47275;-75
2021/06/23 04:06:45;;;;;;;;;20.00;16.25;;;;;19.09;56.25;100737.34;5056467;28;45806;-77
2021/06/23 04:09:10;;;;;;;;;20.50;18.75;;;;;19.08;56.18;100740.91;5091434;27;45818;-76
2021/06/23 04:11:36;;;;;;;;;23.25;20.00;;;;;19.08;56.18;100735.59;5073320;27;45425;-77
2021/06/23 04:14:01;;;;;;;;;19.75;18.75;;;;;19.08;56.22;100738.25;5072730;28;47009;-76
2021/06/23 04:16:27;;;;;;;;;20.50;18.75;;;;;19.06;56.34;100737.50;5067440;27;45317;-76
2021/06/23 04:18:53;;;;;;;;;21.25;20.25;;;;;19.06;56.33;100745.44;5059995;28;45640;-75
2021/06/23 04:21:18;;;;;;;;;19.50;18.25;;;;;19.06;56.20;100742.78;5058053;27;45810;-74
2021/06/23 04:23:44;;;;;;;;;24.00;20.00;;;;;19.04;56.59;100745.53;5063746;28;46289;-74
2021/06/23 04:26:09;;;;;;;;;21.25;20.00;;;;;19.05;56.61;100749.88;5074684;27;45595;-76
2021/06/23 04:28:34;;;;;;;;;22.00;18.75;;;;;19.05;56.63;100752.53;5073689;28;45463;-74
2021/06/23 04:31:00;;;;;;;;;20.75;20.00;;;;;19.05;56.19;100752.53;5073510;27;55052;-75
2021/06/23 04:33:25;;;;;;;;;20.25;17.00;;;;;19.06;56.39;100754.22;5055926;28;47300;-73
2021/06/23 04:35:51;;;;;;;;;22.00;19.50;;;;;19.04;56.55;100761.41;5072510;27;45457;-73
2021/06/23 04:38:16;;;;;;;;;21.50;20.50;;;;;19.05;56.34;100760.47;5073769;27;45527;-73
2021/06/23 04:40:43;;;;;;;;;20.50;17.75;;;;;19.05;56.67;100760.47;5055877;28;45549;-75
2021/06/23 04:43:08;;;;;;;;;19.75;18.50;;;;;19.04;56.41;100761.41;5055873;28;46533;-74
2021/06/23 04:45:34;;;;;;;;;26.25;25.00;;;;;19.04;56.46;100761.41;5091912;27;45797;-75
2021/06/23 04:47:59;;;;;;;;;25.25;22.00;;;;;19.03;56.72;100765.00;5094941;27;45503;-73
2021/06/23 04:50:25;;;;;;;;;21.25;15.75;;;;;19.05;56.62;100765.75;5079604;27;45527;-75
2021/06/23 04:52:50;;;;;;;;;22.75;19.25;;;;;19.04;56.45;100766.69;5076337;27;45493;-77
2021/06/23 04:55:16;;;;;;;;;27.50;25.50;;;;;19.01;56.24;100768.66;5078981;27;55578;-78
2021/06/23 04:57:42;;;;;;;;;27.50;24.50;;;;;18.93;56.65;100758.53;5087012;27;45454;-79
2021/06/23 05:00:08;;;;;;;;;24.25;21.25;;;;;18.85;56.27;100753.66;5077886;27;45422;-78
2021/06/23 05:02:34;;;;;;;;;25.00;24.50;;;;;18.68;57.61;100766.13;5088691;27;46413;-74
2021/06/23 05:05:00;;;;;;;;;27.00;24.25;;;;;18.35;58.10;100766.13;5093513;27;45573;-78
2021/06/23 05:07:25;;;;;;;;;80.00;64.50;;;;;18.04;58.98;100767.78;5075896;27;45682;-73
2021/06/23 05:09:51;;;;;;;;;31.00;27.75;;;;;17.76;59.19;100768.34;5058685;28;45519;-73
2021/06/23 05:12:17;;;;;;;;;23.75;23.75;;;;;17.59;59.73;100771.00;5050611;28;47463;-77
2021/06/23 05:14:43;;;;;;;;;28.50;25.00;;;;;17.44;60.32;100769.13;5062812;28;45513;-76
2021/06/23 05:17:08;;;;;;;;;28.50;28.50;;;;;17.28;60.68;100777.78;5070860;28;45568;-76
2021/06/23 05:19:37;;;;;;;;;31.00;27.00;;;;;17.16;61.38;100780.19;5070853;28;45495;-73
2021/06/23 05:22:04;;;;;;;;;23.00;23.00;;;;;17.01;61.55;100779.13;5057789;28;45694;-74
2021/06/23 05:24:32;;;;;;;;;30.00;26.00;;;;;16.96;61.95;100786.44;5066684;27;45763;-74
2021/06/23 05:26:57;;;;;;;;;29.00;26.00;;;;;16.94;62.08;100789.13;5046118;28;45713;-77
2021/06/23 05:29:23;;;;;;;;;29.50;26.75;;;;;16.91;62.38;100791.91;5056326;28;45600;-80
2021/06/23 05:31:48;;;;;;;;;35.75;30.00;;;;;16.85;62.55;100796.63;5052183;28;58539;-81
2021/06/23 05:34:14;;;;;;;;;30.50;28.50;;;;;16.74;63.02;100791.88;5057412;27;45565;-79
2021/06/23 05:36:39;;;;;;;;;31.00;27.50;;;;;16.65;63.10;100801.00;5053132;28;47447;-77
2021/06/23 05:39:04;;;;;;;;;26.50;24.75;;;;;16.63;63.35;100794.09;5053639;28;45398;-81
2021/06/23 05:41:30;;;;;;;;;28.25;26.00;;;;;16.57;63.44;100797.03;5062529;27;45915;-81
2021/06/23 05:43:55;;;;;;;;;29.00;26.50;;;;;16.54;63.64;100799.81;5073490;27;58928;-78
2021/06/23 05:46:21;;;;;;;;;35.50;31.50;;;;;16.50;64.44;100791.19;5074114;28;45866;-79
2021/06/23 05:48:46;;;;;;;;;27.00;26.00;;;;;16.44;63.91;100797.56;5090100;27;45591;-78
2021/06/23 05:51:12;;;;;;;;;32.00;26.00;;;;;16.42;64.27;100788.88;5072836;28;48063;-81
2021/06/23 05:53:37;;;;;;;;;24.75;24.75;;;;;16.41;64.22;100791.59;5074045;27;54953;-78
2021/06/23 05:56:03;;;;;;;;;24.75;21.00;;;;;16.42;64.01;100798.56;5073179;27;45884;-75
2021/06/23 05:58:29;;;;;;;;;25.25;24.50;;;;;16.41;64.55;100799.50;5069412;28;45547;-73
2021/06/23 06:00:54;;;;;;;;;24.00;22.25;;;;;16.43;64.11;100800.28;5062663;27;45500;-73
2021/06/23 06:03:19;;;;;;;;;28.75;23.75;;;;;16.44;64.49;100800.22;5054672;28;52499;-74
2021/06/23 06:05:49;;;;;;;;;30.25;27.75;;;;;16.46;64.53;100805.41;5089169;27;45436;-73
2021/06/23 06:08:14;;;;;;;;;29.75;26.75;;;;;16.45;64.55;100798.44;5071060;27;45500;-74
2021/06/23 06:10:40;;;;;;;;;29.50;24.50;;;;;16.44;64.32;100807.25;5070456;28;47251;-73
2021/06/23 06:13:05;;;;;;;;;28.00;25.00;;;;;16.43;64.64;100805.56;5053631;27;45902;-79
2021/06/23 06:15:32;;;;;;;;;26.50;26.00;;;;;16.44;64.78;100812.53;5068607;28;45443;-78
2021/06/23 06:18:01;;;;;;;;;32.00;29.00;;;;;16.45;64.94;100817.72;5051154;28;45743;-73
2021/06/23 06:20:27;;;;;;;;;27.00;26.25;;;;;16.48;64.83;100816.75;5056982;27;45650;-73
2021/06/23 06:22:52;;;;;;;;;27.50;26.00;;;;;16.44;64.93;100820.44;5077011;27;45767;-77
2021/06/23 06:25:17;;;;;;;;;35.00;29.25;;;;;16.39;65.01;100820.66;5060864;27;45406;-78
2021/06/23 06:27:43;;;;;;;;;29.75;28.50;;;;;16.39;64.65;100828.56;5085807;27;45452;-76
2021/06/23 06:30:09;;;;;;;;;32.25;28.25;;;;;16.39;64.76;100830.34;5062280;27;45348;-77
2021/06/23 06:32:34;;;;;;;;;32.75;30.25;;;;;16.34;64.71;100837.59;5070318;27;45437;-75
2021/06/23 06:35:00;;;;;;;;;25.00;24.25;;;;;16.30;64.73;100838.69;5067590;27;45311;-82
2021/06/23 06:37:25;;;;;;;;;27.50;26.50;;;;;16.31;64.92;100840.38;5053794;28;47082;-77
2021/06/23 06:39:51;;;;;;;;;29.25;25.00;;;;;16.31;64.59;100838.59;5091627;27;46283;-79
2021/06/23 06:42:16;;;;;;;;;25.50;24.50;;;;;16.36;64.80;100838.41;5081216;27;45311;-80
2021/06/23 06:44:41;;;;;;;;;29.25;25.00;;;;;16.37;64.74;100840.09;5073227;27;45358;-77
2021/06/23 06:47:07;;;;;;;;;34.00;30.00;;;;;16.40;65.12;100846.09;5055397;28;45618;-78
2021/06/23 06:49:32;;;;;;;;;25.25;22.50;;;;;16.40;64.94;100845.22;5128925;27;45420;-74
2021/06/23 06:51:58;;;;;;;;;26.25;24.25;;;;;16.36;65.12;100836.63;5096596;27;45789;-74
2021/06/23 06:54:28;;;;;;;;;30.00;27.25;;;;;16.35;65.69;100845.44;5094008;27;45569;-74
2021/06/23 06:56:53;;;;;;;;;22.75;22.50;;;;;16.34;65.21;100851.66;5086359;27;45626;-78
2021/06/23 06:59:19;;;;;;;;;26.00;24.50;;;;;16.33;66.12;100849.94;5076391;27;45709;-77
2021/06/23 07:01:47;;;;;;;;;37.50;32.25;;;;;16.36;66.10;100854.22;5076392;28;45510;-79
2021/06/23 07:04:14;;;;;;;;;35.00;30.25;;;;;16.33;66.13;100849.06;5083002;27;45547;-75
2021/06/23 07:06:41;;;;;;;;;33.25;31.25;;;;;16.33;66.42;100844.66;5075643;27;45610;-75
2021/06/23 07:09:06;;;;;;;;;35.00;31.75;;;;;16.38;66.53;100852.34;5075637;27;46298;-76
2021/06/23 07:11:32;;;;;;;;;32.25;30.00;;;;;16.37;66.30;100853.28;5071871;28;45453;-75
2021/06/23 07:13:57;;;;;;;;;33.00;30.50;;;;;16.36;66.30;100856.84;5074360;27;45421;-76
2021/06/23 07:16:23;;;;;;;;;31.00;27.50;;;;;16.29;65.96;100863.31;5058721;28;45496;-75
2021/06/23 07:18:49;;;;;;;;;29.00;24.75;;;;;16.27;65.95;100859.91;5072025;27;46859;-76
2021/06/23 07:21:18;;;;;;;;;31.50;27.75;;;;;16.26;65.83;100859.00;5057865;28;45904;-73
2021/06/23 07:23:43;;;;;;;;;27.50;26.00;;;;;16.27;65.46;100868.66;5074553;27;45785;-74
2021/06/23 07:26:09;;;;;;;;;33.25;29.75;;;;;16.24;65.97;100860.88;5056906;28;45693;-71
2021/06/23 07:28:52;;;;;;;;;34.50;28.75;;;;;16.23;65.77;100866.19;5075750;27;57340;-72
2021/06/23 07:31:25;;;;;;;;;33.75;30.25;;;;;16.27;65.89;100865.16;5074555;28;45482;-73
2021/06/23 07:33:54;;;;;;;;;29.75;28.00;;;;;16.30;65.50;100865.03;5074251;27;45922;-73
2021/06/23 07:36:38;;;;;;;;;34.25;27.50;;;;;16.31;65.88;100866.75;5069661;27;45604;-73
2021/06/23 07:39:08;;;;;;;;;35.25;31.00;;;;;16.36;65.73;100864.75;5089607;27;46095;-75
2021/06/23 07:41:35;;;;;;;;;33.75;29.75;;;;;16.39;65.85;100867.25;5091616;27;45414;-77
2021/06/23 07:44:01;;;;;;;;;33.00;29.75;;;;;16.41;66.39;100874.16;5078310;27;45380;-74
2021/06/23 07:46:28;;;;;;;;;33.75;30.75;;;;;16.43;65.45;100869.69;5074328;28;45534;-72
2021/06/23 07:48:56;;;;;;;;;28.00;25.25;;;;;16.46;65.58;100868.69;5060271;27;46170;-74
2021/06/23 07:51:29;;;;;;;;;32.50;27.25;;;;;16.52;65.65;100873.69;5083107;27;45553;-73
2021/06/23 08:10:07;;;;;;;;;30.00;28.50;;;;;16.41;65.17;100881.22;5079032;28;45831;-78
2021/06/23 08:12:54;;;;;;;;;26.50;24.50;;;;;16.36;65.03;100881.41;5077180;27;45384;-74
2021/06/23 08:15:19;;;;;;;;;28.25;24.75;;;;;16.36;65.44;100878.78;5076455;28;45440;-76
2021/06/23 08:17:45;;;;;;;;;33.50;28.75;;;;;16.39;65.53;100875.16;5080122;27;45656;-72
2021/06/23 08:20:11;;;;;;;;;31.25;27.50;;;;;16.44;65.27;100874.03;5094904;27;46105;-75
2021/06/23 08:22:39;;;;;;;;;27.50;25.00;;;;;16.49;65.13;100874.69;5077786;27;45386;-74
2021/06/23 08:25:05;;;;;;;;;29.00;27.25;;;;;16.53;65.03;100871.91;5074968;27;45701;-74
2021/06/23 08:27:31;;;;;;;;;25.75;25.50;;;;;16.59;65.05;100879.53;5075936;27;45863;-78
2021/06/23 08:29:56;;;;;;;;;25.50;25.50;;;;;16.62;64.46;100872.34;5061290;28;51792;-74
2021/06/23 08:32:27;;;;;;;;;27.25;26.75;;;;;16.68;64.66;100879.16;5091956;27;45613;-75
2021/06/23 08:34:53;;;;;;;;;30.50;27.25;;;;;16.76;64.45;100874.41;5073322;28;45640;-77
2021/06/23 08:37:18;;;;;;;;;30.25;27.75;;;;;16.82;64.23;100876.75;5057455;28;45482;-77
2021/06/23 08:39:44;;;;;;;;;31.50;29.50;;;;;16.87;63.88;100872.13;5081001;27;45467;-76
2021/06/23 08:42:09;;;;;;;;;32.50;29.75;;;;;16.94;64.05;100880.63;5052724;28;56831;-78
2021/06/23 08:44:38;;;;;;;;;34.75;29.50;;;;;17.01;63.95;100874.13;5077272;27;45683;-77
2021/06/23 08:47:03;;;;;;;;;31.75;30.00;;;;;17.05;63.73;100876.53;5073468;27;45378;-71
2021/06/23 08:49:30;;;;;;;;;30.00;26.75;;;;;17.09;63.47;100879.88;5074998;28;46279;-78
2021/06/23 08:51:56;;;;;;;;;33.25;27.25;;;;;17.09;63.43;100872.81;5072935;28;45335;-72
2021/06/23 08:54:22;;;;;;;;;32.00;28.00;;;;;17.11;63.24;100875.38;5073013;28;45658;-73
2021/06/23 08:56:48;;;;;;;;;32.75;30.50;;;;;17.13;63.23;100870.03;5066125;27;45736;-75
2021/06/23 08:59:14;;;;;;;;;30.75;29.75;;;;;17.18;63.04;100873.34;5093865;27;47476;-78
2021/06/23 09:01:40;;;;;;;;;26.75;25.00;;;;;17.22;62.86;100873.13;5065341;28;45551;-81
2021/06/23 09:04:09;;;;;;;;;30.50;28.50;;;;;17.31;62.94;100871.81;5054224;27;45505;-80
2021/06/23 09:07:00;;;;;;;;;29.75;26.25;;;;;17.36;62.71;100878.59;5063217;27;45516;-79
2021/06/23 09:09:31;;;;;;;;;25.75;23.00;;;;;17.42;62.41;100880.94;5074924;28;45513;-72
2021/06/23 09:11:57;;;;;;;;;25.75;24.75;;;;;17.49;62.45;100870.94;5072318;27;45537;-76
2021/06/23 09:14:24;;;;;;;;;30.50;27.50;;;;;17.57;62.17;100879.34;5072972;27;45738;-75
2021/06/23 09:17:13;;;;;;;;;30.50;28.75;;;;;17.53;61.96;100876.91;5075557;27;45497;-74
2021/06/23 09:19:43;;;;;;;;;27.50;25.50;;;;;17.46;62.19;100883.44;5053950;28;45431;-75
2021/06/23 09:22:30;;;;;;;;;32.75;28.75;;;;;17.47;62.10;100882.50;5066492;27;45716;-77
2021/06/23 09:24:55;;;;;;;;;24.50;24.50;;;;;17.47;62.24;100880.72;5056264;28;45409;-74
2021/06/23 09:27:27;;;;;;;;;27.50;26.00;;;;;17.50;61.79;100883.19;5069613;27;45628;-77
2021/06/23 09:29:53;;;;;;;;;33.50;29.75;;;;;17.45;62.07;100882.56;5069159;28;48076;-72
2021/06/23 09:32:21;;;;;;;;;26.25;25.75;;;;;17.47;62.11;100890.41;5070678;28;45691;-72
2021/06/23 09:34:48;;;;;;;;;26.50;23.25;;;;;17.49;61.78;100889.41;5064049;27;46839;-74
2021/06/23 09:37:31;;;;;;;;;22.75;22.75;;;;;17.47;61.92;100882.50;5060047;28;45508;-76
2021/06/23 09:40:13;;;;;;;;;29.75;27.75;;;;;17.51;62.19;100884.91;5066129;28;46426;-77
2021/06/23 09:42:42;;;;;;;;;26.00;24.75;;;;;17.57;62.02;100886.41;5072827;27;45539;-75
2021/06/23 09:45:09;;;;;;;;;28.25;26.75;;;;;17.58;61.94;100883.69;5072249;27;45467;-76
2021/06/23 09:47:38;;;;;;;;;26.25;25.50;;;;;17.53;61.90;100884.81;5056257;27;45541;-73
2021/06/23 09:50:05;;;;;;;;;27.50;25.75;;;;;17.51;62.03;100879.63;5059219;27;46567;-75
2021/06/23 09:52:31;;;;;;;;;30.00;26.25;;;;;17.53;62.09;100885.69;5062120;28;45649;-74
2021/06/23 09:54:59;;;;;;;;;27.50;27.00;;;;;17.51;61.89;100884.91;5055844;28;45620;-72
2021/06/23 09:57:24;;;;;;;;;26.00;24.00;;;;;17.53;62.21;100877.75;5067082;27;45641;-74
2021/06/23 09:59:54;;;;;;;;;32.75;28.75;;;;;17.58;62.15;100882.84;5068568;28;45559;-76
2021/06/23 10:02:20;;;;;;;;;31.25;27.25;;;;;17.64;62.08;100875.47;5075353;27;45539;-75
2021/06/23 10:04:46;;;;;;;;;29.25;24.00;;;;;17.71;61.74;100881.31;5072755;27;45471;-75
2021/06/23 10:07:11;;;;;;;;;32.25;30.50;;;;;17.62;61.79;100881.75;5064840;28;45489;-76
2021/06/23 10:09:37;;;;;;;;;28.75;27.00;;;;;17.61;61.93;100883.53;5091609;27;48414;-77
2021/06/23 10:12:07;;;;;;;;;32.25;30.00;;;;;17.70;61.78;100890.19;5074367;27;45606;-75
2021/06/23 10:14:40;;;;;;;;;29.50;28.75;;;;;17.64;61.60;100885.19;5056091;28;45375;-78
2021/06/23 10:17:06;;;;;;;;;30.00;27.00;;;;;17.58;62.08;100888.13;5058272;28;45374;-76
2021/06/23 10:19:31;;;;;;;;;26.75;24.50;;;;;17.58;61.98;100894.25;5072325;28;45438;-74
2021/06/23 10:22:02;;;;;;;;;33.50;28.50;;;;;17.57;61.95;100899.63;5058378;28;45403;-79
2021/06/23 10:24:29;;;;;;;;;28.00;28.00;;;;;17.58;61.68;100893.41;5097077;27;45026;-75
2021/06/23 10:26:55;;;;;;;;;28.00;23.00;;;;;17.50;62.06;100896.41;5076771;28;45685;-77
2021/06/23 10:29:25;;;;;;;;;27.00;25.25;;;;;17.56;62.10;100890.81;5077917;27;45680;-78
2021/06/23 10:31:51;;;;;;;;;27.00;25.75;;;;;17.63;61.73;100899.31;5073556;27;45744;-76
2021/06/23 10:34:17;;;;;;;;;21.00;21.00;;;;;17.70;61.84;100900.75;5072414;27;45607;-76
2021/06/23 10:36:43;;;;;;;;;28.75;23.75;;;;;17.73;61.54;100892.66;5058053;28;45610;-75
2021/06/23 10:39:08;;;;;;;;;31.25;25.75;;;;;17.76;61.71;100891.66;5073813;27;46818;-77
2021/06/23 10:41:40;;;;;;;;;35.75;28.25;;;;;17.73;61.56;100899.75;5064527;28;45367;-77
2021/06/23 10:44:27;;;;;;;;;32.00;26.75;;;;;17.70;61.69;100900.75;5077775;27;45417;-78
2021/06/23 10:46:55;;;;;;;;;29.25;29.00;;;;;17.73;61.86;100905.88;5073108;27;45605;-77
2021/06/23 10:49:40;;;;;;;;;31.00;28.25;;;;;17.71;61.39;100903.31;5076755;27;46415;-77
2021/06/23 10:52:20;;;;;;;;;29.25;27.00;;;;;17.67;61.84;100909.69;5062190;28;45689;-78
2021/06/23 10:54:54;;;;;;;;;31.75;27.00;;;;;17.69;61.59;100910.47;5055057;27;45460;-78
2021/06/23 10:57:23;;;;;;;;;27.25;24.00;;;;;17.75;61.89;100908.44;5070636;27;45956;-74
2021/06/23 10:59:49;;;;;;;;;26.75;25.00;;;;;17.81;61.84;100905.53;5075265;28;45483;-78
2021/06/23 11:02:14;;;;;;;;;29.75;27.75;;;;;17.76;61.69;100911.00;5074572;27;45359;-76
2021/06/23 11:05:00;;;;;;;;;30.75;28.50;;;;;17.74;61.87;100912.00;5072431;27;45633;-79
2021/06/23 11:07:48;;;;;;;;;35.75;33.50;;;;;17.79;61.82;100916.16;5058301;28;45375;-78
2021/06/23 11:10:13;;;;;;;;;32.75;28.25;;;;;17.83;61.60;100916.88;5059258;28;45577;-78
2021/06/23 11:12:48;;;;;;;;;29.75;27.00;;;;;17.86;61.55;100917.56;5065543;28;45401;-78
2021/06/23 11:15:14;;;;;;;;;30.00;23.25;;;;;17.94;61.60;100919.81;5077416;27;45509;-78
2021/06/23 11:17:40;;;;;;;;;35.00;28.75;;;;;18.00;61.29;100915.09;5093059;27;45428;-76
2021/06/23 11:20:25;;;;;;;;;23.50;23.50;;;;;18.07;61.02;100923.56;5058149;28;45564;-75
2021/06/23 11:22:54;;;;;;;;;31.25;26.50;;;;;18.10;60.99;100927.84;5077885;27;45757;-77
2021/06/23 11:25:20;;;;;;;;;23.75;22.00;;;;;18.10;60.79;100933.97;5070863;27;45426;-77
2021/06/23 11:27:45;;;;;;;;;26.50;25.25;;;;;18.08;60.87;100929.72;5071449;27;45603;-77